Time;durP1;ratioP1;P1;durP2;ratioP2;P2;SDS_P1;SDS_P2;PMS_P1;PMS_P2;Temp;Humidity;BMP_temperature;BMP_pressure;BME280_temperature;BME280_humidity;BME280_pressure;Samples;Min_cycle;Max_cycle;Signal;HPM_P1;HPM_P2
2022/11/09 00:00:45;;;;;;;34.25;22.75;;;;;;;9.71;100.00;100786.03;5054623;28;20020;-69
2022/11/09 00:03:12;;;;;;;35.40;22.88;;;;;;;9.63;100.00;100769.19;5054367;28;20032;-69
2022/11/09 00:05:37;;;;;;;37.80;22.52;;;;;;;10.10;100.00;100824.50;5054170;28;20125;-69
2022/11/09 00:08:07;;;;;;;32.22;22.10;;;;;;;9.73;100.00;100777.53;5054003;28;20502;-69
2022/11/09 00:10:32;;;;;;;34.28;21.45;;;;;;;10.00;100.00;100800.03;5067865;28;20032;-69
2022/11/09 00:12:58;;;;;;;29.75;20.90;;;;;;;10.27;100.00;100832.78;5071643;28;20040;-69
2022/11/09 00:15:24;;;;;;;37.05;22.65;;;;;;;9.68;100.00;100781.84;5054417;28;20170;-68
2022/11/09 00:17:49;;;;;;;34.85;22.42;;;;;;;9.61;100.00;100753.13;5071781;28;20111;-69
2022/11/09 00:20:15;;;;;;;33.28;22.35;;;;;;;10.31;100.00;100847.13;5071771;28;20495;-69
2022/11/09 00:22:40;;;;;;;31.33;21.80;;;;;;;9.43;100.00;100716.97;5054164;28;20116;-69
2022/11/09 00:25:06;;;;;;;30.00;21.50;;;;;;;9.81;100.00;100787.59;5071948;28;20029;-69
2022/11/09 00:27:32;;;;;;;32.88;21.48;;;;;;;9.92;100.00;100836.59;5053922;28;20044;-69
2022/11/09 00:29:57;;;;;;;32.83;21.85;;;;;;;9.58;100.00;100770.94;5071972;28;20047;-70
2022/11/09 00:32:23;;;;;;;37.00;22.70;;;;;;;9.87;100.00;100834.09;5071701;28;20119;-69
2022/11/09 00:34:48;;;;;;;30.38;22.20;;;;;;;9.35;100.00;100777.09;5070511;28;20079;-69
2022/11/09 00:37:13;;;;;;;32.50;21.63;;;;;;;9.48;100.00;100750.75;5053641;28;20190;-69
2022/11/09 00:39:39;;;;;;;33.10;21.35;;;;;;;9.80;100.00;100829.94;5071903;28;20044;-69
2022/11/09 00:42:06;;;;;;;27.50;20.73;;;;;;;9.27;100.00;100753.53;5054017;28;20032;-70
2022/11/09 00:44:31;;;;;;;30.30;20.08;;;;;;;9.25;100.00;100758.59;5067172;28;20043;-69
2022/11/09 00:46:57;;;;;;;34.67;20.45;;;;;;;9.36;100.00;100769.50;5071654;28;20032;-69
2022/11/09 00:49:22;;;;;;;30.33;20.65;;;;;;;8.81;100.00;100709.16;5071827;28;20562;-69
2022/11/09 00:51:48;;;;;;;28.65;19.65;;;;;;;9.44;100.00;100765.19;5057747;28;20033;-69
2022/11/09 00:54:13;;;;;;;29.00;20.02;;;;;;;9.85;100.00;100832.41;5051931;28;20479;-69
2022/11/09 00:56:39;;;;;;;27.23;19.33;;;;;;;9.98;100.00;100819.53;5051557;28;20392;-69
2022/11/09 00:59:04;;;;;;;29.15;19.13;;;;;;;9.63;100.00;100791.19;5051753;28;20060;-69
2022/11/09 01:01:29;;;;;;;31.23;19.58;;;;;;;9.60;100.00;100809.84;5051310;28;20032;-68
2022/11/09 01:03:55;;;;;;;27.58;19.05;;;;;;;9.51;100.00;100819.25;5033418;28;20118;-68
2022/11/09 01:06:23;;;;;;;27.65;18.10;;;;;;;9.24;100.00;100762.00;5050786;28;20119;-69
2022/11/09 01:08:48;;;;;;;27.98;17.60;;;;;;;9.03;100.00;100776.59;5050940;28;20111;-68
2022/11/09 01:11:16;;;;;;;24.00;17.88;;;;;;;9.25;100.00;100844.03;5051171;28;20167;-69
2022/11/09 01:13:41;;;;;;;31.70;18.10;;;;;;;9.41;100.00;100831.19;5051392;28;20064;-69
2022/11/09 01:16:13;;;;;;;25.23;18.40;;;;;;;8.60;100.00;100771.00;5051375;28;20061;-69
2022/11/09 01:18:39;;;;;;;27.80;19.25;;;;;;;8.89;100.00;100775.88;5032924;28;20063;-69
2022/11/09 01:21:07;;;;;;;28.33;18.17;;;;;;;8.63;100.00;100705.97;5051133;28;20037;-68
2022/11/09 01:23:33;;;;;;;27.45;18.30;;;;;;;8.66;100.00;100768.44;5033128;28;20040;-68
2022/11/09 01:26:00;;;;;;;27.15;18.25;;;;;;;9.17;100.00;100844.06;5050989;28;20036;-68
2022/11/09 01:28:25;;;;;;;33.67;19.02;;;;;;;8.86;100.00;100773.34;5051234;28;20029;-68
2022/11/09 01:30:51;;;;;;;27.25;18.50;;;;;;;9.20;100.00;100835.63;5033041;28;20112;-71
2022/11/09 01:33:16;;;;;;;28.42;19.15;;;;;;;8.79;100.00;100797.06;5050656;28;20076;-68
2022/11/09 01:35:41;;;;;;;31.10;20.08;;;;;;;8.53;100.00;100759.25;5051200;28;20029;-68
2022/11/09 01:38:08;;;;;;;36.15;20.50;;;;;;;9.01;100.00;100824.78;5051189;28;20494;-69
2022/11/09 01:40:35;;;;;;;30.83;19.90;;;;;;;8.50;100.00;100757.56;5033188;28;20025;-68
2022/11/09 01:43:17;;;;;;;32.83;20.13;;;;;;;8.83;100.00;100808.88;5050736;28;20139;-69
2022/11/09 01:45:47;;;;;;;27.08;18.92;;;;;;;8.68;100.00;100759.97;5032568;28;20032;-69
2022/11/09 01:48:19;;;;;;;28.98;19.25;;;;;;;8.83;100.00;100803.81;5050758;28;20419;-69
2022/11/09 01:50:54;;;;;;;28.80;18.73;;;;;;;8.61;100.00;100765.94;5050746;28;20566;-68
2022/11/09 01:53:26;;;;;;;27.77;19.27;;;;;;;8.77;100.00;100824.13;5050463;28;20033;-69
2022/11/09 01:55:56;;;;;;;25.63;18.10;;;;;;;8.87;100.00;100806.31;5050639;28;20040;-69
2022/11/09 01:58:26;;;;;;;24.02;17.13;;;;;;;9.10;100.00;100817.09;5050478;28;20044;-69
2022/11/09 02:00:54;;;;;;;30.05;19.30;;;;;;;9.00;100.00;100843.38;5032674;28;20116;-69
2022/11/09 02:03:34;;;;;;;27.77;18.10;;;;;;;8.70;100.00;100768.41;5032416;28;20115;-69
2022/11/09 02:06:04;;;;;;;29.35;19.45;;;;;;;8.74;100.00;100787.81;5050366;28;20106;-69
2022/11/09 02:08:30;;;;;;;33.10;19.08;;;;;;;8.70;100.00;100793.75;5050109;28;20087;-70
2022/11/09 02:11:09;;;;;;;31.02;19.70;;;;;;;8.73;100.00;100834.28;5049991;28;20032;-70
2022/11/09 02:13:38;;;;;;;26.05;19.10;;;;;;;9.15;100.00;100840.72;5050026;28;20167;-69
2022/11/09 02:16:04;;;;;;;29.80;19.48;;;;;;;8.95;100.00;100829.91;5050493;28;20510;-70
2022/11/09 02:18:30;;;;;;;30.83;18.92;;;;;;;8.36;100.00;100756.81;5049730;28;20197;-70
2022/11/09 02:20:57;;;;;;;28.42;20.02;;;;;;;8.54;100.00;100812.44;5032510;28;20083;-70
2022/11/09 02:23:26;;;;;;;31.20;21.70;;;;;;;8.35;100.00;100787.22;5032537;28;20052;-70
2022/11/09 02:25:57;;;;;;;32.55;20.92;;;;;;;8.64;100.00;100834.34;5032001;28;20487;-69
2022/11/09 02:28:24;;;;;;;31.83;20.92;;;;;;;8.35;100.00;100805.81;5050417;28;20040;-70
2022/11/09 02:30:53;;;;;;;29.63;20.63;;;;;;;8.51;100.00;100822.63;5032463;28;20128;-69
2022/11/09 02:33:19;;;;;;;29.48;20.90;;;;;;;8.52;100.00;100847.09;5029058;28;20038;-69
2022/11/09 02:35:44;;;;;;;35.70;21.98;;;;;;;8.34;100.00;100821.84;5030126;28;20187;-70
2022/11/09 02:38:11;;;;;;;31.10;19.92;;;;;;;8.18;100.00;100845.53;5030394;28;20033;-69
2022/11/09 02:40:40;;;;;;;33.80;20.45;;;;;;;8.02;100.00;100836.34;5028949;28;20047;-68
2022/11/09 02:43:08;;;;;;;29.48;18.52;;;;;;;7.58;100.00;100772.38;5028621;28;20319;-68
2022/11/09 02:45:34;;;;;;;27.77;18.40;;;;;;;8.07;100.00;100821.97;5029934;28;20029;-69
2022/11/09 02:47:59;;;;;;;25.75;18.17;;;;;;;8.20;100.00;100853.97;5028580;28;20025;-69
2022/11/09 02:50:25;;;;;;;30.88;19.20;;;;;;;7.37;100.00;100739.56;5029904;28;20053;-69
2022/11/09 02:52:50;;;;;;;30.80;18.45;;;;;;;7.37;100.00;100763.13;5030159;28;20037;-69
2022/11/09 02:55:16;;;;;;;27.92;18.23;;;;;;;7.43;100.00;100763.13;5030473;28;20558;-70
2022/11/09 02:57:41;;;;;;;28.85;17.92;;;;;;;7.33;100.00;100785.94;5030092;28;20404;-69
2022/11/09 03:00:07;;;;;;;27.50;18.08;;;;;;;7.21;100.00;100730.31;5029932;28;20486;-69
2022/11/09 03:02:33;;;;;;;28.98;19.48;;;;;;;7.59;100.00;100834.75;5028694;28;20084;-71
2022/11/09 03:04:59;;;;;;;29.42;19.13;;;;;;;7.71;100.00;100825.47;5028479;28;20025;-69
2022/11/09 03:07:24;;;;;;;28.73;17.98;;;;;;;8.01;100.00;100839.72;5030141;28;20029;-69
2022/11/09 03:09:50;;;;;;;26.42;17.85;;;;;;;7.92;100.00;100836.38;5029506;28;20484;-69
2022/11/09 03:12:30;;;;;;;27.55;18.48;;;;;;;7.99;100.00;100864.19;5029896;28;20091;-69
2022/11/09 03:14:55;;;;;;;26.77;17.20;;;;;;;8.15;100.00;100865.81;5029615;28;20675;-69
2022/11/09 03:17:21;;;;;;;26.88;17.05;;;;;;;8.07;100.00;100859.09;5029572;28;20065;-71
2022/11/09 03:19:46;;;;;;;29.15;17.70;;;;;;;8.10;100.00;100864.16;5027880;28;20045;-69
2022/11/09 03:22:12;;;;;;;26.05;17.77;;;;;;;8.06;100.00;100843.03;5029809;28;20109;-69
2022/11/09 03:24:37;;;;;;;27.17;17.45;;;;;;;7.72;100.00;100852.47;5029384;28;20043;-70
2022/11/09 03:27:03;;;;;;;28.00;18.55;;;;;;;7.85;100.00;100851.56;5038112;28;20056;-69
2022/11/09 03:29:28;;;;;;;26.85;17.77;;;;;;;7.71;100.00;100845.69;5042855;28;20471;-69
2022/11/09 03:31:53;;;;;;;28.98;18.08;;;;;;;7.50;100.00;100769.00;5052940;28;20029;-69
2022/11/09 03:34:19;;;;;;;26.80;17.13;;;;;;;7.52;100.00;100785.88;5068014;28;20228;-70
2022/11/09 03:36:44;;;;;;;28.60;18.50;;;;;;;7.68;100.00;100781.63;5055358;28;20402;-69
2022/11/09 03:39:10;;;;;;;29.13;18.83;;;;;;;7.90;100.00;100836.38;5072813;28;20057;-70
2022/11/09 03:41:35;;;;;;;27.80;18.20;;;;;;;7.59;100.00;100794.28;5073089;28;20470;-69
2022/11/09 03:44:00;;;;;;;26.88;17.70;;;;;;;8.06;100.00;100867.53;5072784;28;20106;-69
2022/11/09 03:46:26;;;;;;;27.77;18.20;;;;;;;7.79;100.00;100810.25;5072647;28;20487;-69
2022/11/09 03:48:51;;;;;;;25.70;18.20;;;;;;;7.58;100.00;100779.97;5072610;28;20036;-69
2022/11/09 03:51:17;;;;;;;27.42;19.27;;;;;;;7.65;100.00;100792.56;5072810;28;20067;-69
2022/11/09 03:53:42;;;;;;;27.30;18.65;;;;;;;7.83;100.00;100815.31;5040753;28;20487;-69
2022/11/09 03:56:08;;;;;;;28.48;19.63;;;;;;;7.77;100.00;100849.91;5071926;28;20043;-69
2022/11/09 03:58:33;;;;;;;28.25;19.38;;;;;;;7.74;100.00;100845.69;5072331;28;20448;-69
2022/11/09 04:00:58;;;;;;;31.55;16.55;;;;;;;9.41;100.00;100784.66;5056048;28;20040;-71
2022/11/09 04:03:24;;;;;;;31.88;19.45;;;;;;;8.40;100.00;100856.44;5034689;28;20037;-71
2022/11/09 04:05:49;;;;;;;28.23;18.88;;;;;;;7.77;100.00;100805.19;5052569;28;20410;-70
2022/11/09 04:08:15;;;;;;;28.38;18.42;;;;;;;7.62;100.00;100797.66;5054537;28;20021;-70
2022/11/09 04:10:40;;;;;;;30.27;18.92;;;;;;;7.20;100.00;100789.31;5072516;28;20124;-70
2022/11/09 04:13:06;;;;;;;29.58;19.60;;;;;;;7.77;100.00;100847.38;5066886;28;20028;-69
2022/11/09 04:15:31;;;;;;;31.88;19.20;;;;;;;7.20;100.00;100738.72;5067584;28;20078;-69
2022/11/09 04:17:58;;;;;;;31.60;19.63;;;;;;;7.43;100.00;100855.84;5071963;28;20032;-70
2022/11/09 04:20:26;;;;;;;31.98;20.40;;;;;;;7.17;100.00;100777.50;5053770;28;20028;-69
2022/11/09 04:22:55;;;;;;;31.70;19.50;;;;;;;7.57;100.00;100854.16;5071728;28;20518;-69
2022/11/09 04:25:21;;;;;;;28.88;19.55;;;;;;;7.31;100.00;100785.09;5071795;28;20107;-69
2022/11/09 04:27:46;;;;;;;34.42;19.85;;;;;;;7.67;100.00;100838.13;5071807;28;20107;-69
2022/11/09 04:30:12;;;;;;;28.95;20.10;;;;;;;7.19;100.00;100787.63;5053919;28;20413;-71
2022/11/09 04:32:37;;;;;;;31.23;20.90;;;;;;;7.22;100.00;100775.81;5071283;28;20140;-69
2022/11/09 04:35:03;;;;;;;32.47;20.77;;;;;;;7.73;100.00;100869.31;5060588;28;21839;-69
2022/11/09 04:37:28;;;;;;;36.03;22.63;;;;;;;7.28;100.00;100797.72;5047363;28;20103;-70
2022/11/09 04:39:54;;;;;;;39.60;23.02;;;;;;;7.56;100.00;100842.38;5053575;28;20033;-69
2022/11/09 04:42:19;;;;;;;40.90;25.35;;;;;;;7.15;100.00;100793.53;5053283;28;20043;-70
2022/11/09 04:44:45;;;;;;;36.85;25.08;;;;;;;7.06;100.00;100743.81;5052923;28;20094;-68
2022/11/09 04:47:11;;;;;;;38.13;27.25;;;;;;;7.19;100.00;100851.66;5053367;28;20422;-68
2022/11/09 04:49:36;;;;;;;37.40;23.30;;;;;;;7.45;100.00;100856.69;5052711;28;20024;-69
2022/11/09 04:52:02;;;;;;;29.00;21.08;;;;;;;7.12;100.00;100811.22;5071017;28;20135;-69
2022/11/09 04:54:27;;;;;;;33.75;21.20;;;;;;;7.01;100.00;100791.84;5071048;28;20032;-68
2022/11/09 04:56:53;;;;;;;28.60;19.42;;;;;;;6.73;100.00;100754.81;5071203;28;20035;-69
2022/11/09 04:59:18;;;;;;;37.35;21.13;;;;;;;7.33;100.00;100855.03;5070952;28;20028;-70
2022/11/09 05:01:44;;;;;;;33.67;21.60;;;;;;;7.15;100.00;100841.56;5052628;28;20029;-68
2022/11/09 05:04:09;;;;;;;32.58;20.52;;;;;;;7.47;100.00;100870.19;5052955;28;20032;-70
2022/11/09 05:06:35;;;;;;;40.65;24.23;;;;;;;7.01;100.00;100875.25;5070991;28;20024;-68
2022/11/09 05:09:03;;;;;;;40.92;25.52;;;;;;;7.20;100.00;100868.53;5052997;28;20426;-68
2022/11/09 05:11:29;;;;;;;46.97;28.15;;;;;;;7.25;100.00;100881.19;5052261;28;20029;-68
2022/11/09 05:13:55;;;;;;;54.58;32.05;;;;;;;7.24;100.00;100889.59;5070512;28;20178;-67
2022/11/09 05:16:21;;;;;;;55.22;31.83;;;;;;;7.10;100.00;100879.50;5052677;28;20035;-68
2022/11/09 05:18:48;;;;;;;51.72;29.38;;;;;;;6.70;100.00;100835.63;5070915;28;20023;-67
2022/11/09 05:21:13;;;;;;;45.20;25.42;;;;;;;6.60;100.00;100831.41;5070165;28;20032;-67
2022/11/09 05:26:34;;;;;;;40.53;22.95;;;;;;;6.82;100.00;100887.88;5050334;28;20040;-65
2022/11/09 05:29:01;;;;;;;36.53;24.50;;;;;;;6.33;100.00;100823.78;5050655;28;20459;-66
2022/11/09 05:31:27;;;;;;;35.47;23.42;;;;;;;6.79;100.00;100848.28;5050721;28;20028;-68
2022/11/09 05:33:53;;;;;;;32.55;21.40;;;;;;;6.75;100.00;100823.03;5049699;28;20064;-72
2022/11/09 05:36:20;;;;;;;34.03;21.20;;;;;;;7.36;100.00;100866.84;5038818;28;20029;-66
2022/11/09 05:38:45;;;;;;;33.97;20.15;;;;;;;7.31;100.00;100902.25;5036249;28;20519;-67
2022/11/09 05:41:11;;;;;;;34.15;20.63;;;;;;;7.18;100.00;100914.88;5049010;28;20079;-67
2022/11/09 05:43:37;;;;;;;32.72;19.45;;;;;;;8.10;100.00;100889.47;5049891;28;20029;-67
2022/11/09 05:46:03;;;;;;;31.75;20.73;;;;;;;7.52;100.00;100854.19;5049576;28;20032;-68
2022/11/09 05:48:28;;;;;;;38.63;21.98;;;;;;;7.53;100.00;100855.84;5050275;28;20044;-67
2022/11/09 05:50:53;;;;;;;35.13;21.48;;;;;;;7.61;100.00;100925.00;5050392;28;20033;-67
2022/11/09 05:53:19;;;;;;;35.75;21.75;;;;;;;8.47;100.00;100924.84;5050174;28;20136;-67
2022/11/09 05:55:44;;;;;;;37.15;21.17;;;;;;;7.94;100.00;100845.66;5050721;28;20749;-67
2022/11/09 05:58:10;;;;;;;34.45;20.80;;;;;;;8.68;100.00;100871.50;5032594;28;20076;-67
2022/11/09 06:00:36;;;;;;;36.00;21.48;;;;;;;9.47;100.00;100954.63;5050605;28;20108;-67
2022/11/09 06:03:09;;;;;;;37.90;24.23;;;;;;;9.42;100.00;100931.84;5050374;28;20025;-67
2022/11/09 06:05:36;;;;;;;32.75;21.70;;;;;;;8.86;100.00;100900.97;5049075;28;20029;-68
2022/11/09 06:08:11;;;;;;;31.98;20.88;;;;;;;9.74;100.00;100879.94;5050245;28;20036;-68
2022/11/09 06:10:37;;;;;;;32.80;19.88;;;;;;;10.27;100.00;100921.72;5049645;28;20408;-68
2022/11/09 06:13:03;;;;;;;27.75;19.45;;;;;;;9.83;100.00;100906.09;5050473;28;20086;-68
2022/11/09 06:15:28;;;;;;;31.92;21.50;;;;;;;10.11;100.00;100937.16;5032774;28;20399;-68
2022/11/09 06:17:55;;;;;;;27.85;21.65;;;;;;;10.65;100.00;100986.53;5050275;28;20029;-67
2022/11/09 06:20:21;;;;;;;34.90;21.00;;;;;;;10.32;100.00;100958.09;5032206;28;20403;-68
2022/11/09 06:22:54;;;;;;;31.95;20.52;;;;;;;10.41;100.00;100980.03;5048780;28;20071;-69
2022/11/09 06:25:20;;;;;;;31.25;21.17;;;;;;;10.23;100.00;100970.06;5050108;28;20163;-68
2022/11/09 06:27:46;;;;;;;35.55;22.45;;;;;;;10.75;100.00;100988.09;5050006;28;20031;-68
2022/11/09 06:30:11;;;;;;;42.25;25.98;;;;;;;10.40;100.00;100920.72;5050185;28;20029;-68
2022/11/09 06:32:37;;;;;;;43.60;25.60;;;;;;;11.58;100.00;100995.41;5050065;28;20091;-68
2022/11/09 06:35:02;;;;;;;42.97;23.35;;;;;;;11.31;100.00;100927.91;5050158;28;20029;-68
2022/11/09 06:37:28;;;;;;;33.53;22.27;;;;;;;11.37;100.00;100921.06;5049530;28;20495;-68
2022/11/09 06:39:53;;;;;;;36.00;21.50;;;;;;;11.64;100.00;100936.72;5048634;28;20029;-68
2022/11/09 06:42:19;;;;;;;35.75;22.63;;;;;;;12.02;100.00;100992.97;5031947;28;20400;-69
2022/11/09 06:44:44;;;;;;;33.92;23.05;;;;;;;11.64;100.00;100974.94;5049725;28;20410;-68
2022/11/09 06:47:09;;;;;;;37.58;21.80;;;;;;;11.84;100.00;100937.25;5049894;28;20029;-68
2022/11/09 06:49:35;;;;;;;48.25;28.50;;;;;;;12.32;100.00;100952.50;5050137;28;20029;-68
2022/11/09 06:52:00;;;;;;;50.88;28.55;;;;;;;12.16;100.00;101001.22;5049774;28;20033;-69
2022/11/09 06:54:26;;;;;;;51.00;28.33;;;;;;;11.53;100.00;100922.50;5049973;28;20029;-69
2022/11/09 06:56:55;;;;;;;40.08;25.23;;;;;;;11.42;100.00;100996.50;5049861;28;20033;-68
2022/11/09 06:59:21;;;;;;;40.85;22.73;;;;;;;11.07;100.00;100968.16;5049899;28;20037;-68
2022/11/09 07:01:46;;;;;;;34.72;23.17;;;;;;;10.97;100.00;100982.69;5050149;28;20036;-71
2022/11/09 07:04:13;;;;;;;46.05;29.83;;;;;;;10.46;100.00;100918.09;5049331;28;20056;-68
2022/11/09 07:06:40;;;;;;;39.33;24.05;;;;;;;11.18;100.00;100982.41;5052429;28;20029;-68
2022/11/09 07:09:05;;;;;;;38.08;23.35;;;;;;;10.05;100.00;100861.81;5035205;28;20538;-68
2022/11/09 07:11:31;;;;;;;37.63;23.33;;;;;;;11.20;100.00;100932.34;5053161;28;20036;-68
2022/11/09 07:13:56;;;;;;;36.03;21.90;;;;;;;11.21;100.00;100949.28;5035655;28;20025;-68
2022/11/09 07:16:22;;;;;;;35.90;22.00;;;;;;;10.99;100.00;100908.91;5053672;28;20459;-68
2022/11/09 07:18:47;;;;;;;36.47;23.10;;;;;;;10.87;100.00;100899.75;5053257;28;20483;-68
2022/11/09 07:21:13;;;;;;;40.95;23.58;;;;;;;11.49;100.00;100949.69;5053550;28;20025;-68
2022/11/09 07:23:38;;;;;;;44.90;23.35;;;;;;;11.14;100.00;100974.84;5052725;28;20029;-68
2022/11/09 07:26:04;;;;;;;46.15;23.70;;;;;;;11.66;100.00;100968.13;5053209;28;20025;-68
2022/11/09 07:28:30;;;;;;;43.78;22.17;;;;;;;11.40;100.00;100901.47;5052909;28;20041;-68
2022/11/09 07:30:58;;;;;;;47.17;23.48;;;;;;;10.95;100.00;100914.91;5053028;28;20415;-69
2022/11/09 07:33:24;;;;;;;41.40;22.67;;;;;;;11.54;100.00;100913.97;5053158;28;20048;-68
2022/11/09 07:35:50;;;;;;;52.35;24.27;;;;;;;11.35;100.00;100969.44;5034788;28;20025;-68
2022/11/09 07:38:16;;;;;;;52.40;23.95;;;;;;;12.05;100.00;100961.50;5051382;28;20029;-68
2022/11/09 07:40:43;;;;;;;44.92;23.45;;;;;;;12.14;100.00;100938.41;5035067;28;20033;-68
2022/11/09 07:43:10;;;;;;;42.58;23.40;;;;;;;12.33;100.00;100969.47;5053031;28;20036;-68
2022/11/09 07:45:36;;;;;;;48.33;24.42;;;;;;;12.02;100.00;100915.69;5034967;28;20103;-69
2022/11/09 07:48:05;;;;;;;41.17;25.10;;;;;;;12.46;100.00;100983.69;5052857;28;20033;-69
2022/11/09 07:50:32;;;;;;;29.73;21.50;;;;;;;12.73;100.00;100988.22;5034880;28;20036;-69
2022/11/09 07:52:58;;;;;;;34.65;21.92;;;;;;;12.48;100.00;100911.34;5051271;28;20087;-68
2022/11/09 07:55:25;;;;;;;34.08;21.38;;;;;;;12.18;100.00;100928.09;5052920;28;20044;-68
2022/11/09 07:58:02;;;;;;;37.13;20.85;;;;;;;12.91;100.00;100977.63;5034680;28;20037;-68
2022/11/09 08:00:30;;;;;;;30.33;19.58;;;;;;;12.63;100.00;100985.03;5052515;28;20056;-68
2022/11/09 08:02:56;;;;;;;35.97;20.65;;;;;;;12.52;100.00;100927.44;5052270;28;20067;-68
2022/11/09 08:05:21;;;;;;;29.52;20.35;;;;;;;12.92;100.00;100976.75;5034270;28;20112;-68
2022/11/09 08:07:47;;;;;;;29.48;19.77;;;;;;;12.41;100.00;100958.25;5034522;28;20488;-69
2022/11/09 08:10:13;;;;;;;33.92;19.70;;;;;;;12.29;100.00;100962.75;5052240;28;20029;-68
2022/11/09 08:12:38;;;;;;;28.85;19.55;;;;;;;12.50;100.00;100930.00;5034723;28;20399;-68
2022/11/09 08:15:04;;;;;;;26.67;18.10;;;;;;;12.40;100.00;100913.22;5051108;28;20438;-68
2022/11/09 08:17:30;;;;;;;27.13;17.55;;;;;;;12.45;100.00;100910.56;5051904;28;20033;-68
2022/11/09 08:19:55;;;;;;;20.80;14.65;;;;;;;12.61;100.00;100904.28;5034424;28;20784;-68
2022/11/09 08:22:21;;;;;;;22.98;15.23;;;;;;;12.36;100.00;100875.88;5052249;28;20028;-68
2022/11/09 08:24:46;;;;;;;23.08;15.68;;;;;;;12.48;100.00;100902.88;5052145;28;20039;-68
2022/11/09 08:27:12;;;;;;;22.85;15.00;;;;;;;12.99;100.00;100911.94;5034260;28;20056;-68
2022/11/09 08:29:37;;;;;;;21.45;15.10;;;;;;;12.34;100.00;100872.53;5052116;28;20025;-68
2022/11/09 08:32:02;;;;;;;18.35;13.52;;;;;;;13.47;100.00;100915.09;5034181;28;20033;-69
2022/11/09 08:34:28;;;;;;;22.90;14.63;;;;;;;13.72;100.00;100993.66;5050162;28;20052;-67
2022/11/09 08:36:53;;;;;;;24.70;14.05;;;;;;;12.87;100.00;100940.28;5051970;28;20025;-68
2022/11/09 08:39:21;;;;;;;20.08;13.48;;;;;;;13.10;100.00;100884.47;5051491;28;20025;-68
2022/11/09 08:41:46;;;;;;;20.98;13.07;;;;;;;13.87;100.00;100984.75;5051733;28;20029;-68
2022/11/09 08:44:12;;;;;;;19.08;12.05;;;;;;;13.68;100.00;100917.94;5051843;28;20035;-68
2022/11/09 08:46:37;;;;;;;20.88;12.95;;;;;;;13.53;100.00;100969.41;5034002;28;20420;-69
2022/11/09 08:49:02;;;;;;;21.60;12.30;;;;;;;13.72;100.00;100934.03;5051247;28;20025;-68
2022/11/09 08:51:28;;;;;;;16.17;11.73;;;;;;;14.09;100.00;100974.81;5051523;28;20485;-68
2022/11/09 08:53:53;;;;;;;19.75;11.75;;;;;;;13.49;100.00;100928.66;5051863;28;20056;-68
2022/11/09 08:56:19;;;;;;;17.70;11.98;;;;;;;14.46;100.00;100975.56;5051543;28;20036;-68
2022/11/09 08:58:45;;;;;;;16.10;10.77;;;;;;;14.28;100.00;100940.25;5051618;28;20033;-68
2022/11/09 09:01:10;;;;;;;20.40;12.68;;;;;;;14.58;100.00;100975.19;5051505;28;20036;-69
2022/11/09 09:03:36;;;;;;;18.95;12.18;;;;;;;14.27;100.00;100933.41;5051150;28;20029;-70
2022/11/09 09:06:04;;;;;;;18.70;12.52;;;;;;;14.31;100.00;100975.94;5033534;28;20021;-69
2022/11/09 09:08:29;;;;;;;19.15;11.73;;;;;;;14.27;100.00;100977.72;5051485;28;20029;-69
2022/11/09 09:10:54;;;;;;;18.40;12.13;;;;;;;14.17;100.00;100924.28;5049917;28;20039;-69
2022/11/09 09:13:21;;;;;;;19.73;13.18;;;;;;;14.40;100.00;100934.78;5051301;28;20434;-69
2022/11/09 09:15:47;;;;;;;20.58;14.00;;;;;;;14.32;100.00;100872.75;5051387;28;20487;-69
2022/11/09 09:18:12;;;;;;;22.15;13.98;;;;;;;14.28;100.00;100868.59;5051058;28;20025;-69
2022/11/09 09:20:38;;;;;;;22.70;14.57;;;;;;;15.06;100.00;100952.41;5051163;28;20115;-69
2022/11/09 09:23:03;;;;;;;22.65;15.80;;;;;;;14.78;100.00;100944.72;5050781;28;20031;-69
2022/11/09 09:25:29;;;;;;;21.95;14.98;;;;;;;14.72;100.00;100945.75;5050688;28;20029;-68
2022/11/09 09:27:54;;;;;;;21.05;14.60;;;;;;;15.13;100.00;100954.75;5050111;28;20028;-69
2022/11/09 09:30:20;;;;;;;25.00;16.35;;;;;;;15.24;100.00;100893.78;5050753;28;20479;-68
2022/11/09 09:32:45;;;;;;;25.73;17.02;;;;;;;15.48;100.00;100949.41;5050588;28;20467;-68
2022/11/09 09:35:11;;;;;;;25.88;17.15;;;;;;;15.51;100.00;100953.56;5050768;28;20563;-69
2022/11/09 09:37:36;;;;;;;23.27;15.00;;;;;;;15.02;100.00;100955.97;5049607;28;20040;-68
2022/11/09 09:40:02;;;;;;;26.80;16.50;;;;;;;15.44;100.00;100952.09;5050705;28;20080;-68
2022/11/09 09:42:34;;;;;;;25.05;17.90;;;;;;;15.80;100.00;100950.06;5050718;28;20569;-68
2022/11/09 09:45:22;;;;;;;26.00;16.88;;;;;;;15.60;100.00;100949.00;5050838;28;20492;-67
2022/11/09 09:47:56;;;;;;;25.85;17.52;;;;;;;15.53;100.00;100946.66;5050624;28;20101;-68
2022/11/09 09:50:47;;;;;;;24.80;17.98;;;;;;;15.89;100.00;100948.00;5050751;28;20111;-68
2022/11/09 09:53:16;;;;;;;23.25;17.63;;;;;;;15.87;100.00;100930.97;5050639;28;20403;-68
2022/11/09 09:55:46;;;;;;;24.17;18.20;;;;;;;15.35;100.00;100927.56;5050498;28;20029;-68
2022/11/09 09:58:15;;;;;;;27.33;18.55;;;;;;;15.49;100.00;100942.53;5050471;28;20461;-68
2022/11/09 10:00:42;;;;;;;26.63;18.60;;;;;;;15.52;100.00;100945.84;5050597;28;20033;-68
2022/11/09 10:03:19;;;;;;;26.65;18.77;;;;;;;15.85;100.00;100927.63;5032856;28;20055;-68
2022/11/09 10:06:15;;;;;;;25.27;17.92;;;;;;;15.79;100.00;100946.63;5050219;28;20037;-67
2022/11/09 10:09:10;;;;;;;24.02;18.20;;;;;;;15.70;100.00;100935.84;5050402;28;20025;-68
2022/11/09 10:11:55;;;;;;;27.20;17.65;;;;;;;16.11;100.00;100917.31;5050273;28;20059;-67
2022/11/09 10:14:35;;;;;;;25.45;17.17;;;;;;;16.12;100.00;100878.75;5050056;28;20033;-68
2022/11/09 10:17:06;;;;;;;25.77;16.95;;;;;;;16.58;100.00;100929.28;5050137;28;20033;-68
2022/11/09 10:20:15;;;;;;;27.77;17.67;;;;;;;16.48;100.00;100925.34;5050096;28;20526;-68
2022/11/09 10:23:16;;;;;;;20.98;14.73;;;;;;;16.77;100.00;100924.31;4987065;28;20095;-67
2022/11/09 10:25:44;;;;;;;21.15;13.68;;;;;;;16.27;100.00;100918.44;4965782;28;20503;-67
2022/11/09 10:28:14;;;;;;;18.48;12.90;;;;;;;16.40;100.00;100811.88;5064433;28;20423;-69
2022/11/09 10:30:40;;;;;;;20.02;12.23;;;;;;;16.89;100.00;100906.69;5060751;28;20025;-69
2022/11/09 10:33:09;;;;;;;17.13;12.00;;;;;;;16.85;100.00;100918.00;5049840;28;20060;-70
2022/11/09 10:35:41;;;;;;;22.20;12.50;;;;;;;17.10;100.00;100905.84;5065281;28;20025;-70
2022/11/09 10:38:13;;;;;;;19.30;11.90;;;;;;;17.05;100.00;100912.06;5052228;28;20035;-69
2022/11/09 10:40:52;;;;;;;22.08;12.48;;;;;;;17.14;100.00;100907.41;5052347;28;20170;-69
2022/11/09 10:43:17;;;;;;;15.18;11.02;;;;;;;16.66;100.00;100898.22;5059099;28;20043;-70
2022/11/09 10:45:44;;;;;;;17.75;11.13;;;;;;;16.50;100.00;100815.75;5055506;28;20032;-69
2022/11/09 10:48:12;;;;;;;17.30;11.30;;;;;;;17.31;100.00;100848.41;5054229;28;20037;-69
2022/11/09 10:50:40;;;;;;;17.60;11.45;;;;;;;17.19;100.00;100825.78;5055795;28;20112;-67
2022/11/09 10:53:22;;;;;;;16.40;10.45;;;;;;;16.90;100.00;100887.81;5053500;28;20032;-67
2022/11/09 10:55:56;;;;;;;17.45;11.38;;;;;;;17.33;100.00;100889.50;5052153;28;20029;-68
2022/11/09 10:58:41;;;;;;;16.95;10.45;;;;;;;17.27;100.00;100882.84;5033871;28;20036;-68
2022/11/09 11:01:15;;;;;;;16.20;9.38;;;;;;;16.60;100.00;100806.81;5052826;28;20025;-67
2022/11/09 11:03:42;;;;;;;18.20;9.73;;;;;;;17.28;100.00;100881.13;5034859;28;20029;-67
2022/11/09 11:06:15;;;;;;;17.38;9.90;;;;;;;17.03;100.00;100840.19;5053137;28;20455;-67
2022/11/09 11:08:46;;;;;;;16.45;9.80;;;;;;;17.03;100.00;100793.09;5052867;28;20124;-68
2022/11/09 11:11:29;;;;;;;21.45;11.35;;;;;;;17.40;100.00;100810.38;5053563;28;20029;-67